createdAt,value
2022-12-04T00:00:20.065Z,102100.09
2022-12-04T00:02:51.051Z,102102.75
2022-12-04T00:05:23.097Z,102105.38
2022-12-04T00:07:59.137Z,102098.44
2022-12-04T00:10:29.801Z,102105.53
2022-12-04T00:12:59.821Z,102101.16
2022-12-04T00:15:29.355Z,102111.56
2022-12-04T00:18:00.050Z,102107.97
2022-12-04T00:20:32.406Z,102110.63
2022-12-04T00:23:04.143Z,102114.19
2022-12-04T00:25:37.916Z,102105.41
2022-12-04T00:28:10.515Z,102107.06
2022-12-04T00:30:47.548Z,102113.28
2022-12-04T00:33:17.901Z,102104.50
2022-12-04T00:35:46.835Z,102115.06
2022-12-04T00:38:15.933Z,102110.72
2022-12-04T00:40:55.557Z,102104.50
2022-12-04T00:43:27.807Z,102100.19
2022-12-04T00:45:57.720Z,102094.03
2022-12-04T00:48:28.942Z,102096.53
2022-12-04T00:51:03.648Z,102102.84
2022-12-04T00:53:33.071Z,102097.50
2022-12-04T00:56:06.746Z,102100.13
2022-12-04T00:58:38.695Z,102093.09
2022-12-04T01:01:11.197Z,102087.88
2022-12-04T01:03:43.451Z,102086.94
2022-12-04T01:06:22.631Z,102082.50
2022-12-04T01:08:52.804Z,102083.50
2022-12-04T01:11:30.358Z,102079.09
2022-12-04T01:14:00.591Z,102079.97
2022-12-04T01:16:33.817Z,102087.88
2022-12-04T01:19:11.320Z,102085.28
2022-12-04T01:21:44.120Z,102081.75
2022-12-04T01:24:12.688Z,102081.72
2022-12-04T01:26:42.120Z,102084.31
2022-12-04T01:29:11.153Z,102086.94
2022-12-04T01:31:40.428Z,102085.09
2022-12-04T01:34:11.046Z,102083.28
2022-12-04T01:36:40.456Z,102084.25
2022-12-04T01:39:09.611Z,102083.41
2022-12-04T01:41:39.868Z,102077.91
2022-12-04T01:44:13.990Z,102087.69
2022-12-04T01:46:45.955Z,102078.06
2022-12-04T01:49:21.013Z,102083.38
2022-12-04T01:51:56.730Z,102092.00
2022-12-04T01:54:30.351Z,102089.25
2022-12-04T01:57:05.585Z,102084.97
2022-12-04T01:59:44.454Z,102081.41
2022-12-04T02:02:17.791Z,102077.09
2022-12-04T02:04:48.660Z,102082.38
2022-12-04T02:07:17.884Z,102085.03
2022-12-04T02:09:53.901Z,102079.75
2022-12-04T02:12:38.042Z,102085.91
2022-12-04T02:15:18.828Z,102081.50
2022-12-04T02:18:01.273Z,102081.41
2022-12-04T02:20:40.477Z,102081.41
2022-12-04T02:23:47.517Z,102089.41
2022-12-04T02:26:41.448Z,102081.53
2022-12-04T02:29:25.237Z,102076.22
2022-12-04T02:32:01.023Z,102072.66
2022-12-04T02:34:38.088Z,102070.94
2022-12-04T02:37:15.913Z,102068.31
2022-12-04T02:39:56.279Z,102076.13
2022-12-04T02:42:37.342Z,102069.09
2022-12-04T02:45:13.876Z,102071.75
2022-12-04T02:47:46.220Z,102069.94
2022-12-04T02:50:19.781Z,102071.75
2022-12-04T02:52:53.899Z,102075.22
2022-12-04T02:55:31.436Z,102066.41
2022-12-04T02:58:07.468Z,102068.22
2022-12-04T03:00:43.473Z,102056.81
2022-12-04T03:03:21.303Z,102065.50
2022-12-04T03:05:59.832Z,102061.13
2022-12-04T03:08:36.417Z,102063.66
2022-12-04T03:11:06.267Z,102063.75
2022-12-04T03:13:42.885Z,102076.94
2022-12-04T03:16:24.610Z,102073.44
2022-12-04T03:18:59.482Z,102074.31
2022-12-04T03:21:35.235Z,102069.84
2022-12-04T03:24:14.562Z,102076.78
2022-12-04T03:26:49.619Z,102077.75
2022-12-04T03:29:24.937Z,102070.81
2022-12-04T03:32:05.965Z,102068.06
2022-12-04T03:34:41.103Z,102068.94
2022-12-04T03:37:17.314Z,102065.38
2022-12-04T03:39:58.862Z,102065.47
2022-12-04T03:42:36.289Z,102064.56
2022-12-04T03:45:16.702Z,102069.84
2022-12-04T03:47:56.561Z,102063.59
2022-12-04T03:50:37.292Z,102061.91
2022-12-04T03:53:18.470Z,102054.91
2022-12-04T03:55:53.754Z,102061.03
2022-12-04T03:58:31.537Z,102052.25
2022-12-04T04:01:05.414Z,102053.94
2022-12-04T04:03:43.208Z,102050.47
2022-12-04T04:06:19.548Z,102054.00
2022-12-04T04:08:57.146Z,102044.34
2022-12-04T04:11:33.454Z,102039.78
2022-12-04T04:14:27.010Z,102041.69
2022-12-04T04:17:19.046Z,102045.13
2022-12-04T04:20:18.958Z,102035.56
2022-12-04T04:23:11.429Z,102044.28
2022-12-04T04:25:45.014Z,102045.22
2022-12-04T04:28:34.733Z,102045.28
2022-12-04T04:31:19.338Z,102045.31
2022-12-04T04:33:59.696Z,102042.66
2022-12-04T04:36:44.963Z,102049.69
2022-12-04T04:39:25.534Z,102058.50
2022-12-04T04:42:05.011Z,102047.03
2022-12-04T04:44:46.478Z,102042.66
2022-12-04T04:47:23.164Z,102049.63
2022-12-04T04:49:57.781Z,102046.16
2022-12-04T04:52:29.295Z,102045.16
2022-12-04T04:55:01.680Z,102051.34
2022-12-04T04:57:34.215Z,102058.41
2022-12-04T05:00:05.506Z,102056.56
2022-12-04T05:02:39.336Z,102048.66
2022-12-04T05:05:09.950Z,102050.47
2022-12-04T05:07:47.305Z,102046.09
2022-12-04T05:10:16.509Z,102048.72
2022-12-04T05:12:45.461Z,102054.00
2022-12-04T05:15:14.581Z,102056.47
2022-12-04T05:17:43.993Z,102057.34
2022-12-04T05:20:19.880Z,102063.59
2022-12-04T05:22:53.991Z,102056.56
2022-12-04T05:25:23.148Z,102060.00
2022-12-04T05:27:52.240Z,102062.72
2022-12-04T05:30:21.325Z,102064.50
2022-12-04T05:32:54.177Z,102053.09
2022-12-04T05:35:23.108Z,102058.50
2022-12-04T05:37:54.220Z,102056.88
2022-12-04T05:40:23.514Z,102057.84
2022-12-04T05:42:55.987Z,102064.09
2022-12-04T05:45:25.665Z,102065.06
2022-12-04T05:47:54.524Z,102064.19
2022-12-04T05:50:23.618Z,102059.13
2022-12-04T05:52:53.987Z,102055.81
2022-12-04T05:55:23.167Z,102058.66
2022-12-04T05:57:52.388Z,102061.41
2022-12-04T06:00:27.537Z,102066.69
2022-12-04T06:02:56.985Z,102057.09
2022-12-04T06:05:29.290Z,102064.22
2022-12-04T06:08:00.207Z,102052.97
2022-12-04T06:10:30.804Z,102055.66
2022-12-04T06:12:59.742Z,102059.16
2022-12-04T06:15:28.787Z,102055.72
2022-12-04T06:17:58.207Z,102051.38
2022-12-04T06:20:27.529Z,102055.00
2022-12-04T06:22:56.831Z,102054.19
2022-12-04T06:25:30.992Z,102052.50
2022-12-04T06:28:00.385Z,102056.84
2022-12-04T06:30:32.230Z,102062.97
2022-12-04T06:33:01.513Z,102067.31
2022-12-04T06:35:30.300Z,102065.56
2022-12-04T06:37:59.308Z,102069.13
2022-12-04T06:40:29.729Z,102078.75
2022-12-04T06:42:58.953Z,102071.69
2022-12-04T06:45:31.661Z,102075.16
2022-12-04T06:48:03.133Z,102076.88
2022-12-04T06:50:32.203Z,102077.69
2022-12-04T06:53:06.616Z,102077.63
2022-12-04T06:55:39.713Z,102072.31
2022-12-04T06:58:09.268Z,102078.47
2022-12-04T07:00:38.304Z,102075.88
2022-12-04T07:03:07.374Z,102075.91
2022-12-04T07:05:39.054Z,102075.97
2022-12-04T07:08:08.475Z,102076.00
2022-12-04T07:10:44.124Z,102077.78
2022-12-04T07:13:16.997Z,102094.50
2022-12-04T07:15:46.666Z,102083.94
2022-12-04T07:18:15.519Z,102091.75
2022-12-04T07:20:47.020Z,102085.56
2022-12-04T07:23:15.804Z,102087.22
2022-12-04T07:25:47.069Z,102085.38
2022-12-04T07:28:16.716Z,102093.22
2022-12-04T07:30:46.022Z,102098.38
2022-12-04T07:33:16.182Z,102096.56
2022-12-04T07:35:45.234Z,102088.59
2022-12-04T07:38:14.945Z,102095.53
2022-12-04T07:40:46.546Z,102098.03
2022-12-04T07:43:18.467Z,102097.97
2022-12-04T07:45:47.316Z,102093.50
2022-12-04T07:48:16.726Z,102099.56
2022-12-04T07:50:46.131Z,102099.50
2022-12-04T07:53:15.813Z,102101.16
2022-12-04T07:55:46.359Z,102102.81
2022-12-04T07:58:20.219Z,102104.34
2022-12-04T08:00:49.525Z,102105.06
2022-12-04T08:03:19.013Z,102097.91
2022-12-04T08:05:48.209Z,102102.13
2022-12-04T08:08:17.809Z,102101.13
2022-12-04T08:10:49.191Z,102100.09
2022-12-04T08:13:21.879Z,102104.31
2022-12-04T08:15:54.277Z,102100.69
2022-12-04T08:18:32.705Z,102104.09
2022-12-04T08:21:07.140Z,102107.44
2022-12-04T08:23:37.063Z,102105.56
2022-12-04T08:26:13.181Z,102105.44
2022-12-04T08:28:46.214Z,102107.91
2022-12-04T08:31:21.010Z,102109.56
2022-12-04T08:33:53.310Z,102111.16
2022-12-04T08:36:24.026Z,102112.84
2022-12-04T08:38:53.545Z,102109.13
2022-12-04T08:41:27.004Z,102114.16
2022-12-04T08:43:58.097Z,102105.31
2022-12-04T08:46:31.571Z,102105.19
2022-12-04T08:49:02.684Z,102110.28
2022-12-04T08:51:36.689Z,102117.31
2022-12-04T08:54:17.010Z,102116.13
2022-12-04T08:56:52.972Z,102116.97
2022-12-04T08:59:26.651Z,102122.97
2022-12-04T09:02:09.478Z,102126.53
2022-12-04T09:04:51.417Z,102127.13
2022-12-04T09:07:25.623Z,102122.47
2022-12-04T09:09:56.530Z,102115.19
2022-12-04T09:12:29.625Z,102122.09
2022-12-04T09:15:03.550Z,102114.13
2022-12-04T09:17:33.901Z,102111.16
2022-12-04T09:20:38.982Z,102108.25
2022-12-04T09:23:09.875Z,102111.75
2022-12-04T09:26:14.145Z,102100.16
2022-12-04T09:28:37.022Z,102104.63
2022-12-04T09:31:09.761Z,102106.34
2022-12-04T09:33:46.928Z,102104.47
2022-12-04T09:36:29.696Z,102096.47
2022-12-04T09:39:09.026Z,102099.84
2022-12-04T09:42:24.871Z,102086.56
2022-12-04T09:45:10.019Z,102086.88
2022-12-04T09:47:46.688Z,102081.22
2022-12-04T09:50:26.732Z,102074.00
2022-12-04T09:53:21.703Z,102080.81
2022-12-04T09:56:01.411Z,102074.66
2022-12-04T09:58:51.792Z,102063.75
2022-12-04T10:01:33.342Z,102068.97
2022-12-04T10:04:06.519Z,102069.75
2022-12-04T10:06:48.212Z,102061.88
2022-12-04T10:09:29.727Z,102051.28
2022-12-04T10:12:18.952Z,102050.50
2022-12-04T10:15:07.104Z,102052.25
2022-12-04T10:18:34.710Z,102057.38
2022-12-04T10:21:35.566Z,102049.13
2022-12-04T10:24:25.314Z,102039.72
2022-12-04T10:27:22.753Z,102044.66
2022-12-04T10:30:02.205Z,102039.06
2022-12-04T10:32:35.685Z,102032.50
2022-12-04T10:35:24.638Z,102029.88
2022-12-04T10:38:01.401Z,102030.69
2022-12-04T10:40:43.500Z,102026.38
2022-12-04T10:43:29.574Z,102020.84
2022-12-04T10:46:00.571Z,102017.25
2022-12-04T10:48:44.480Z,102016.50
2022-12-04T10:51:28.142Z,102012.66
2022-12-04T10:54:04.633Z,102001.91
2022-12-04T10:56:34.776Z,102012.53
2022-12-04T10:59:09.228Z,102012.09
2022-12-04T11:01:43.590Z,102005.13
2022-12-04T11:04:25.613Z,101999.97
2022-12-04T11:07:06.366Z,102000.53
2022-12-04T11:09:41.357Z,101996.22
2022-12-04T11:12:24.969Z,101999.53
2022-12-04T11:15:15.346Z,101994.06
2022-12-04T11:17:46.376Z,101996.41
2022-12-04T11:20:23.223Z,101988.13
2022-12-04T11:23:09.931Z,101991.91
2022-12-04T11:25:50.836Z,101978.44
2022-12-04T11:28:41.299Z,101974.66
2022-12-04T11:31:55.365Z,101969.25
2022-12-04T11:34:32.941Z,101966.13
2022-12-04T11:37:05.555Z,101970.88
2022-12-04T11:39:42.256Z,101964.41
2022-12-04T11:42:25.188Z,101967.94
2022-12-04T11:44:58.089Z,101969.22
2022-12-04T11:47:31.822Z,101962.63
2022-12-04T11:50:21.340Z,101960.97
2022-12-04T11:53:17.493Z,101962.81
2022-12-04T11:56:26.674Z,101957.50
2022-12-04T11:59:40.348Z,101951.28
2022-12-04T12:02:36.048Z,101962.72
2022-12-04T12:05:56.003Z,101955.41
2022-12-04T12:08:59.271Z,101946.88
2022-12-04T12:11:42.709Z,101944.94
2022-12-04T12:14:21.737Z,101945.91
2022-12-04T12:17:04.948Z,101939.66
2022-12-04T12:20:16.185Z,101942.31
2022-12-04T12:23:19.170Z,101946.72
2022-12-04T12:25:59.789Z,101940.44
2022-12-04T12:29:10.427Z,101936.84
2022-12-04T12:32:11.972Z,101942.16
2022-12-04T12:34:45.169Z,101933.06
2022-12-04T12:37:37.327Z,101940.13
2022-12-04T12:40:16.814Z,101934.09
2022-12-04T12:42:58.444Z,101936.72
2022-12-04T12:45:40.523Z,101929.53
2022-12-04T12:48:28.755Z,101930.44
2022-12-04T12:51:29.658Z,101924.88
2022-12-04T12:54:14.291Z,101925.09
2022-12-04T12:56:51.609Z,101919.69
2022-12-04T12:59:26.952Z,101918.53
2022-12-04T13:02:09.122Z,101916.69
2022-12-04T13:04:49.611Z,101915.66
2022-12-04T13:07:35.498Z,101913.56
2022-12-04T13:10:17.028Z,101904.16
2022-12-04T13:12:57.967Z,101910.13
2022-12-04T13:15:51.477Z,101910.13
2022-12-04T13:18:43.304Z,101902.59
2022-12-04T13:21:58.836Z,101908.69
2022-12-04T13:25:21.460Z,101904.31
2022-12-04T13:28:11.012Z,101908.59
2022-12-04T13:30:50.351Z,101894.50
2022-12-04T13:34:08.578Z,101894.72
2022-12-04T13:37:21.655Z,101905.34
2022-12-04T13:40:37.366Z,101890.94
2022-12-04T13:43:23.130Z,101888.03
2022-12-04T13:46:05.966Z,101897.06
2022-12-04T13:48:44.161Z,101885.66
2022-12-04T13:51:40.148Z,101888.91
2022-12-04T13:54:32.543Z,101873.78
2022-12-04T13:57:25.670Z,101876.44
2022-12-04T14:00:07.663Z,101880.94
2022-12-04T14:02:42.237Z,101874.84
2022-12-04T14:05:29.939Z,101879.09
2022-12-04T14:08:20.323Z,101879.09
2022-12-04T14:11:06.429Z,101882.78
2022-12-04T14:13:52.447Z,101891.03
2022-12-04T14:16:26.469Z,101882.59
2022-12-04T14:19:00.964Z,101879.19
2022-12-04T14:21:46.615Z,101883.66
2022-12-04T14:24:36.343Z,101884.69
2022-12-04T14:27:35.351Z,101887.34
2022-12-04T14:30:11.185Z,101883.78
2022-12-04T14:32:47.195Z,101881.16
2022-12-04T14:35:24.018Z,101882.94
2022-12-04T14:38:00.717Z,101884.13
2022-12-04T14:40:38.840Z,101889.41
2022-12-04T14:43:15.060Z,101893.09
2022-12-04T14:45:52.820Z,101882.34
2022-12-04T14:48:42.299Z,101892.19
2022-12-04T14:51:26.369Z,101903.56
2022-12-04T14:54:16.687Z,101899.28
2022-12-04T14:57:04.186Z,101903.75
2022-12-04T14:59:50.911Z,101909.28
2022-12-04T15:02:35.143Z,101909.34
2022-12-04T15:05:10.307Z,101911.31
2022-12-04T15:07:49.269Z,101905.78
2022-12-04T15:10:43.564Z,101907.56
2022-12-04T15:13:17.289Z,101907.53
2022-12-04T15:15:57.057Z,101914.69
2022-12-04T15:18:26.224Z,101912.00
2022-12-04T15:21:00.830Z,101917.44
2022-12-04T15:23:36.930Z,101922.66
2022-12-04T15:26:13.237Z,101923.69
2022-12-04T15:28:48.294Z,101923.56
2022-12-04T15:31:23.460Z,101929.16
2022-12-04T15:33:58.538Z,101929.16
2022-12-04T15:36:48.236Z,101921.19
2022-12-04T15:39:27.247Z,101920.31
2022-12-04T15:42:08.460Z,101927.38
2022-12-04T15:44:38.691Z,101922.97
2022-12-04T15:47:25.492Z,101922.28
2022-12-04T15:49:55.411Z,101915.88
2022-12-04T15:52:27.146Z,101920.41
2022-12-04T15:55:05.651Z,101913.28
2022-12-04T15:57:51.683Z,101917.66
2022-12-04T16:00:33.359Z,101911.44
2022-12-04T16:03:23.301Z,101917.88
2022-12-04T16:06:22.337Z,101923.97
2022-12-04T16:08:55.037Z,101920.41
2022-12-04T16:11:35.862Z,101918.53
2022-12-04T16:14:23.637Z,101912.56
2022-12-04T16:17:05.525Z,101921.53
2022-12-04T16:19:47.112Z,101924.31
2022-12-04T16:22:21.380Z,101917.19
2022-12-04T16:25:06.650Z,101912.97
2022-12-04T16:27:43.142Z,101909.47
2022-12-04T16:30:19.564Z,101910.13
2022-12-04T16:32:48.908Z,101908.38
2022-12-04T16:35:22.016Z,101904.03
2022-12-04T16:37:53.387Z,101913.78
2022-12-04T16:40:22.951Z,101911.84
2022-12-04T16:42:55.683Z,101906.72
2022-12-04T16:45:33.620Z,101908.59
2022-12-04T16:48:02.772Z,101906.84
2022-12-04T16:50:31.865Z,101903.66
2022-12-04T16:53:00.871Z,101902.78
2022-12-04T16:55:38.276Z,101900.00
2022-12-04T16:58:12.514Z,101897.56
2022-12-04T17:00:49.081Z,101899.09
2022-12-04T17:03:26.539Z,101901.63
2022-12-04T17:05:56.373Z,101898.06
2022-12-04T17:08:40.743Z,101897.25
2022-12-04T17:11:16.963Z,101898.13
2022-12-04T17:13:46.439Z,101905.81
2022-12-04T17:16:19.737Z,101897.84
2022-12-04T17:18:58.080Z,101902.41
2022-12-04T17:21:30.556Z,101901.41
2022-12-04T17:24:05.431Z,101912.91
2022-12-04T17:26:34.686Z,101911.00
2022-12-04T17:29:04.079Z,101913.56
2022-12-04T17:31:36.678Z,101921.66
2022-12-04T17:34:07.202Z,101917.34
2022-12-04T17:36:36.290Z,101919.75
2022-12-04T17:39:07.599Z,101919.91
2022-12-04T17:41:57.085Z,101918.78
2022-12-04T17:44:28.982Z,101918.63
2022-12-04T17:46:59.851Z,101919.53
2022-12-04T17:49:28.913Z,101911.75
2022-12-04T17:51:58.388Z,101914.34
2022-12-04T17:54:31.572Z,101914.59
2022-12-04T17:57:11.627Z,101914.50
2022-12-04T17:59:43.859Z,101917.22
2022-12-04T18:02:20.548Z,101919.75
2022-12-04T18:04:55.926Z,101916.84
2022-12-04T18:07:25.094Z,101918.88
2022-12-04T18:09:56.790Z,101922.56
2022-12-04T18:12:30.109Z,101921.88
2022-12-04T18:14:59.381Z,101913.69
2022-12-04T18:17:29.716Z,101909.34
2022-12-04T18:20:04.226Z,101910.00
2022-12-04T18:22:34.104Z,101909.34
2022-12-04T18:25:03.367Z,101905.78
2022-12-04T18:27:36.708Z,101917.91
2022-12-04T18:30:10.939Z,101918.00
2022-12-04T18:32:41.765Z,101917.06
2022-12-04T18:35:11.860Z,101917.06
2022-12-04T18:37:40.785Z,101913.47
2022-12-04T18:40:30.032Z,101919.88
2022-12-04T18:42:59.101Z,101920.75
2022-12-04T18:45:28.270Z,101918.00
2022-12-04T18:47:59.085Z,101921.66
2022-12-04T18:50:30.334Z,101913.91
2022-12-04T18:53:01.268Z,101908.44
2022-12-04T18:55:36.609Z,101919.91
2022-12-04T18:58:06.280Z,101924.41
2022-12-04T19:00:40.343Z,101922.78
2022-12-04T19:03:14.434Z,101930.59
2022-12-04T19:05:50.392Z,101921.75
2022-12-04T19:08:19.723Z,101931.47
2022-12-04T19:10:49.110Z,101930.53
2022-12-04T19:13:18.736Z,101934.94
2022-12-04T19:15:47.823Z,101939.13
2022-12-04T19:18:19.028Z,101941.88
2022-12-04T19:20:48.671Z,101948.19
2022-12-04T19:23:17.714Z,101940.13
2022-12-04T19:25:55.677Z,101945.44
2022-12-04T19:28:24.959Z,101943.72
2022-12-04T19:30:54.872Z,101946.47
2022-12-04T19:33:34.844Z,101940.25
2022-12-04T19:36:07.600Z,101945.31
2022-12-04T19:38:37.319Z,101942.69
2022-12-04T19:41:10.322Z,101942.00
2022-12-04T19:43:48.730Z,101948.09
2022-12-04T19:46:21.466Z,101948.09
2022-12-04T19:49:00.642Z,101947.22
2022-12-04T19:51:32.308Z,101941.81
2022-12-04T19:54:04.542Z,101946.88
2022-12-04T19:56:38.603Z,101942.66
2022-12-04T19:59:12.149Z,101942.78
2022-12-04T20:01:41.550Z,101941.91
2022-12-04T20:04:12.321Z,101935.81
2022-12-04T20:06:46.154Z,101946.31
2022-12-04T20:09:26.075Z,101943.63
2022-12-04T20:12:22.831Z,101942.00
2022-12-04T20:14:51.399Z,101940.91
2022-12-04T20:17:20.827Z,101944.47
2022-12-04T20:19:51.445Z,101935.66
2022-12-04T20:22:21.361Z,101933.91
2022-12-04T20:24:59.339Z,101939.47
2022-12-04T20:27:28.764Z,101935.84
2022-12-04T20:29:57.964Z,101938.50
2022-12-04T20:32:29.924Z,101937.69
2022-12-04T20:35:00.282Z,101933.28
2022-12-04T20:37:31.043Z,101922.66
2022-12-04T20:40:03.201Z,101928.75
2022-12-04T20:42:33.733Z,101931.38
2022-12-04T20:45:06.426Z,101931.38
2022-12-04T20:47:37.478Z,101929.41
2022-12-04T20:50:14.390Z,101930.53
2022-12-04T20:52:44.366Z,101930.34
2022-12-04T20:55:13.363Z,101927.69
2022-12-04T20:57:52.271Z,101927.47
2022-12-04T21:00:22.012Z,101920.38
2022-12-04T21:02:51.686Z,101910.81
2022-12-04T21:05:22.819Z,101912.56
2022-12-04T21:07:54.420Z,101910.00
2022-12-04T21:10:27.090Z,101909.69
2022-12-04T21:13:12.748Z,101902.94
2022-12-04T21:18:51.976Z,101909.22
2022-12-04T21:21:23.816Z,101899.38
2022-12-04T21:23:53.497Z,101898.41
2022-12-04T21:26:23.297Z,101896.72
2022-12-04T21:28:54.985Z,101892.00
2022-12-04T21:31:24.969Z,101895.81
2022-12-04T21:33:54.410Z,101894.19
2022-12-04T21:36:31.787Z,101902.94
2022-12-04T21:39:01.411Z,101895.06
2022-12-04T21:41:48.166Z,101896.00
2022-12-04T21:44:20.805Z,101887.13
2022-12-04T21:46:50.161Z,101888.78
2022-12-04T21:49:20.938Z,101884.44
2022-12-04T21:51:57.783Z,101882.66
2022-12-04T21:54:28.638Z,101881.91
2022-12-04T21:56:59.177Z,101874.69
2022-12-04T21:59:28.858Z,101880.16
2022-12-04T22:01:58.027Z,101882.78
2022-12-04T22:04:27.364Z,101879.16
2022-12-04T22:06:58.205Z,101890.69
2022-12-04T22:09:32.528Z,101887.34
2022-12-04T22:12:04.227Z,101887.19
2022-12-04T22:14:44.839Z,101889.84
2022-12-04T22:17:14.814Z,101891.63
2022-12-04T22:19:44.289Z,101890.69
2022-12-04T22:22:18.263Z,101889.84
2022-12-04T22:24:49.184Z,101897.63
2022-12-04T22:27:29.242Z,101890.63
2022-12-04T22:29:58.954Z,101888.88
2022-12-04T22:32:31.410Z,101885.38
2022-12-04T22:35:00.616Z,101880.00
2022-12-04T22:37:31.614Z,101884.44
2022-12-04T22:40:08.704Z,101879.22
2022-12-04T22:42:37.759Z,101875.59
2022-12-04T22:45:08.710Z,101883.47
2022-12-04T22:47:38.696Z,101878.25
2022-12-04T22:50:17.733Z,101879.25
2022-12-04T22:52:48.450Z,101881.03
2022-12-04T22:55:18.238Z,101870.41
2022-12-04T22:57:51.382Z,101877.41
2022-12-04T23:00:20.760Z,101870.38
2022-12-04T23:02:49.747Z,101865.97
2022-12-04T23:05:19.169Z,101871.06
2022-12-04T23:08:05.521Z,101863.28
2022-12-04T23:10:40.628Z,101872.75
2022-12-04T23:13:13.470Z,101865.66
2022-12-04T23:15:43.340Z,101864.81
2022-12-04T23:18:18.702Z,101869.03
2022-12-04T23:20:50.693Z,101862.84
2022-12-04T23:23:22.752Z,101854.91
2022-12-04T23:25:54.982Z,101859.28
2022-12-04T23:28:24.466Z,101864.63
2022-12-04T23:31:05.407Z,101861.94
2022-12-04T23:33:35.111Z,101860.19
2022-12-04T23:36:06.352Z,101856.56
2022-12-04T23:38:39.049Z,101861.75
2022-12-04T23:41:12.464Z,101856.34
2022-12-04T23:43:42.823Z,101850.38
2022-12-04T23:46:15.338Z,101844.19
2022-12-04T23:48:57.290Z,101844.84
2022-12-04T23:51:27.354Z,101840.41
2022-12-04T23:54:05.150Z,101835.25
2022-12-04T23:56:36.392Z,101841.28
2022-12-04T23:59:05.707Z,101835.13
